<?xml version='1.0' encoding='UTF-8'?><gpx version="1.1" creator="JPX - https://github.com/jenetics/jpx" xmlns="http://www.topografix.com/GPX/1/1"><trk><trkseg><trkpt lat="41.7911478942095" lon="12.488834557797919"><ele>63.0</ele><time>2026-04-19T13:23:55Z</time></trkpt><trkpt lat="41.79108448433743" lon="12.48881948195641"><ele>63.0</ele><time>2026-04-19T13:24:01Z</time></trkpt><trkpt lat="41.791022628207955" lon="12.488796434024396"><ele>63.0</ele><time>2026-04-19T13:24:12Z</time></trkpt><trkpt lat="41.79090777110337" lon="12.488757795395955"><ele>63.0</ele><time>2026-04-19T13:24:14Z</time></trkpt><trkpt lat="41.79084075476116" lon="12.488738839370027"><ele>63.0</ele><time>2026-04-19T13:24:15Z</time></trkpt><trkpt lat="41.79077546335765" lon="12.488718549532317"><ele>63.0</ele><time>2026-04-19T13:24:16Z</time></trkpt><trkpt lat="41.79066298242968" lon="12.488682850921041"><ele>63.0</ele><time>2026-04-19T13:24:18Z</time></trkpt><trkpt lat="41.79058252581094" lon="12.488661235691337"><ele>63.0</ele><time>2026-04-19T13:24:20Z</time></trkpt><trkpt lat="41.79049377273713" lon="12.488639221314152"><ele>63.0</ele><time>2026-04-19T13:24:38Z</time></trkpt><trkpt lat="41.790379306584946" lon="12.488614638773246"><ele>63.0</ele><time>2026-04-19T13:24:40Z</time></trkpt><trkpt lat="41.790309181352036" lon="12.488596972912028"><ele>63.0</ele><time>2026-04-19T13:24:41Z</time></trkpt><trkpt lat="41.79023047473908" lon="12.488577147574656"><ele>63.0</ele><time>2026-04-19T13:24:42Z</time></trkpt><trkpt lat="41.79014795915317" lon="12.488553076601493"><ele>63.0</ele><time>2026-04-19T13:24:43Z</time></trkpt><trkpt lat="41.79006724777568" lon="12.488528148855147"><ele>63.0</ele><time>2026-04-19T13:24:44Z</time></trkpt><trkpt lat="41.78999223851172" lon="12.488504675027023"><ele>63.0</ele><time>2026-04-19T13:24:45Z</time></trkpt><trkpt lat="41.78992396290623" lon="12.488481746703187"><ele>63.0</ele><time>2026-04-19T13:24:46Z</time></trkpt><trkpt lat="41.789809677839216" lon="12.48844932105861"><ele>63.0</ele><time>2026-04-19T13:24:48Z</time></trkpt><trkpt lat="41.789723996781994" lon="12.48838942426128"><ele>63.0</ele><time>2026-04-19T13:24:50Z</time></trkpt><trkpt lat="41.789664253590345" lon="12.488301204793881"><ele>63.0</ele><time>2026-04-19T13:24:52Z</time></trkpt><trkpt lat="41.789587815831666" lon="12.488269763419169"><ele>63.0</ele><time>2026-04-19T13:24:54Z</time></trkpt><trkpt lat="41.7895166306584" lon="12.48831332515071"><ele>63.0</ele><time>2026-04-19T13:24:56Z</time></trkpt><trkpt lat="41.78947569322686" lon="12.488390796871958"><ele>63.0</ele><time>2026-04-19T13:24:58Z</time></trkpt><trkpt lat="41.789397685790554" lon="12.48842538073587"><ele>63.0</ele><time>2026-04-19T13:25:00Z</time></trkpt><trkpt lat="41.789261465134096" lon="12.488410910381905"><ele>63.0</ele><time>2026-04-19T13:25:02Z</time></trkpt><trkpt lat="41.78917845153116" lon="12.488410574102101"><ele>62.0</ele><time>2026-04-19T13:25:03Z</time></trkpt><trkpt lat="41.78908782559377" lon="12.488418370512036"><ele>61.0</ele><time>2026-04-19T13:25:04Z</time></trkpt><trkpt lat="41.788995677493155" lon="12.488434784582166"><ele>60.0</ele><time>2026-04-19T13:25:05Z</time></trkpt><trkpt lat="41.78890255824844" lon="12.488459979400416"><ele>59.0</ele><time>2026-04-19T13:25:06Z</time></trkpt><trkpt lat="41.788810864204805" lon="12.488502305875237"><ele>58.0</ele><time>2026-04-19T13:25:07Z</time></trkpt><trkpt lat="41.78872290650627" lon="12.48855950723046"><ele>58.0</ele><time>2026-04-19T13:25:08Z</time></trkpt><trkpt lat="41.78863778188283" lon="12.488622414390488"><ele>58.0</ele><time>2026-04-19T13:25:09Z</time></trkpt><trkpt lat="41.7885584919541" lon="12.48870288476031"><ele>58.0</ele><time>2026-04-19T13:25:10Z</time></trkpt><trkpt lat="41.788482857555906" lon="12.488792946128765"><ele>58.0</ele><time>2026-04-19T13:25:11Z</time></trkpt><trkpt lat="41.78841475314318" lon="12.488889902979157"><ele>58.0</ele><time>2026-04-19T13:25:12Z</time></trkpt><trkpt lat="41.78834951739973" lon="12.488998031020136"><ele>57.0</ele><time>2026-04-19T13:25:13Z</time></trkpt><trkpt lat="41.78829094849738" lon="12.489109068573853"><ele>56.0</ele><time>2026-04-19T13:25:14Z</time></trkpt><trkpt lat="41.78824149996623" lon="12.489228957800123"><ele>55.0</ele><time>2026-04-19T13:25:15Z</time></trkpt><trkpt lat="41.78819893936379" lon="12.489356227241903"><ele>54.0</ele><time>2026-04-19T13:25:16Z</time></trkpt><trkpt lat="41.78816566331439" lon="12.489479694485446"><ele>53.0</ele><time>2026-04-19T13:25:17Z</time></trkpt><trkpt lat="41.78814133401517" lon="12.489602001744334"><ele>53.00000000000001</ele><time>2026-04-19T13:25:18Z</time></trkpt><trkpt lat="41.78812045123953" lon="12.48971852540876"><ele>53.0</ele><time>2026-04-19T13:25:19Z</time></trkpt><trkpt lat="41.78809893701441" lon="12.489824133343554"><ele>53.0</ele><time>2026-04-19T13:25:20Z</time></trkpt><trkpt lat="41.78807851087897" lon="12.48991156825389"><ele>53.0</ele><time>2026-04-19T13:25:21Z</time></trkpt><trkpt lat="41.78803991168986" lon="12.490044229984761"><ele>53.00000000000001</ele><time>2026-04-19T13:25:22.999Z</time></trkpt><trkpt lat="41.78801130365976" lon="12.49013574331497"><ele>53.0</ele><time>2026-04-19T13:25:25.999Z</time></trkpt><trkpt lat="41.78799121136939" lon="12.490250050184981"><ele>53.00000000000001</ele><time>2026-04-19T13:25:53Z</time></trkpt><trkpt lat="41.78795892825772" lon="12.490332953932846"><ele>53.0</ele><time>2026-04-19T13:25:55Z</time></trkpt><trkpt lat="41.7879127676941" lon="12.490410549035824"><ele>53.0</ele><time>2026-04-19T13:25:57Z</time></trkpt><trkpt lat="41.78785528030622" lon="12.490494558713424"><ele>53.0</ele><time>2026-04-19T13:25:59Z</time></trkpt><trkpt lat="41.78778803948515" lon="12.49058501682879"><ele>53.00000000000001</ele><time>2026-04-19T13:26:01Z</time></trkpt><trkpt lat="41.787718128951305" lon="12.49069867434054"><ele>53.0</ele><time>2026-04-19T13:26:03Z</time></trkpt><trkpt lat="41.78761110669048" lon="12.490791855237191"><ele>53.00000000000001</ele><time>2026-04-19T13:26:05Z</time></trkpt><trkpt lat="41.78754352994322" lon="12.490905993011122"><ele>53.0</ele><time>2026-04-19T13:26:07Z</time></trkpt><trkpt lat="41.78748755397185" lon="12.49100013037618"><ele>53.0</ele><time>2026-04-19T13:26:09Z</time></trkpt><trkpt lat="41.787434529871014" lon="12.491078470977978"><ele>53.0</ele><time>2026-04-19T13:26:11Z</time></trkpt><trkpt lat="41.787372503598014" lon="12.491140220490266"><ele>53.00000000000001</ele><time>2026-04-19T13:26:13Z</time></trkpt><trkpt lat="41.787285805674394" lon="12.491143286819073"><ele>53.0</ele><time>2026-04-19T13:26:15Z</time></trkpt><trkpt lat="41.78720240826495" lon="12.491047065157112"><ele>53.0</ele><time>2026-04-19T13:26:17Z</time></trkpt><trkpt lat="41.78716267502366" lon="12.49088875052333"><ele>53.0</ele><time>2026-04-19T13:26:19Z</time></trkpt><trkpt lat="41.787154897346745" lon="12.490794111604746"><ele>53.0</ele><time>2026-04-19T13:26:20Z</time></trkpt><trkpt lat="41.78714456718322" lon="12.4906902390069"><ele>53.0</ele><time>2026-04-19T13:26:21Z</time></trkpt><trkpt lat="41.78713581426165" lon="12.490577455019292"><ele>53.0</ele><time>2026-04-19T13:26:22Z</time></trkpt><trkpt lat="41.78713198311936" lon="12.490454082267307"><ele>52.599999999999994</ele><time>2026-04-19T13:26:23Z</time></trkpt><trkpt lat="41.78713365688419" lon="12.490325524555598"><ele>52.199999999999996</ele><time>2026-04-19T13:26:24Z</time></trkpt><trkpt lat="41.78713911995912" lon="12.490190095139754"><ele>51.8</ele><time>2026-04-19T13:26:25Z</time></trkpt><trkpt lat="41.78714903859288" lon="12.490049326385948"><ele>51.4</ele><time>2026-04-19T13:26:26Z</time></trkpt><trkpt lat="41.78716047138635" lon="12.489901788449304"><ele>51.0</ele><time>2026-04-19T13:26:27Z</time></trkpt><trkpt lat="41.78717221699504" lon="12.489749309613254"><ele>50.0</ele><time>2026-04-19T13:26:28Z</time></trkpt><trkpt lat="41.787184830524374" lon="12.48959101607586"><ele>49.0</ele><time>2026-04-19T13:26:29Z</time></trkpt><trkpt lat="41.78719624683308" lon="12.489429163879482"><ele>48.0</ele><time>2026-04-19T13:26:30Z</time></trkpt><trkpt lat="41.78720789876795" lon="12.489264421806512"><ele>47.0</ele><time>2026-04-19T13:26:31Z</time></trkpt><trkpt lat="41.787236251009524" lon="12.489100251255435"><ele>47.0</ele><time>2026-04-19T13:26:32Z</time></trkpt><trkpt lat="41.787250201314045" lon="12.4889318144876"><ele>47.0</ele><time>2026-04-19T13:26:33Z</time></trkpt><trkpt lat="41.787263608287496" lon="12.488763027755672"><ele>47.0</ele><time>2026-04-19T13:26:34Z</time></trkpt><trkpt lat="41.78727724353906" lon="12.488591367123158"><ele>47.0</ele><time>2026-04-19T13:26:35Z</time></trkpt><trkpt lat="41.787290917248505" lon="12.488419222308625"><ele>47.25</ele><time>2026-04-19T13:26:36Z</time></trkpt><trkpt lat="41.78730469063227" lon="12.488245822655944"><ele>47.5</ele><time>2026-04-19T13:26:37Z</time></trkpt><trkpt lat="41.78731835781653" lon="12.488073341022812"><ele>47.75</ele><time>2026-04-19T13:26:38Z</time></trkpt><trkpt lat="41.7873320798466" lon="12.48790126107743"><ele>48.0</ele><time>2026-04-19T13:26:39Z</time></trkpt><trkpt lat="41.78734572599476" lon="12.48773015025056"><ele>48.0</ele><time>2026-04-19T13:26:40Z</time></trkpt><trkpt lat="41.787359333035006" lon="12.487559529805955"><ele>48.0</ele><time>2026-04-19T13:26:41Z</time></trkpt><trkpt lat="41.787373072479504" lon="12.487388541625917"><ele>48.0</ele><time>2026-04-19T13:26:42Z</time></trkpt><trkpt lat="41.78738673635379" lon="12.487219283492475"><ele>48.0</ele><time>2026-04-19T13:26:43Z</time></trkpt><trkpt lat="41.7874004758802" lon="12.487049088242081"><ele>48.0</ele><time>2026-04-19T13:26:44Z</time></trkpt><trkpt lat="41.78741419808611" lon="12.486879107540656"><ele>48.0</ele><time>2026-04-19T13:26:45Z</time></trkpt><trkpt lat="41.78742818327361" lon="12.48670954552375"><ele>48.0</ele><time>2026-04-19T13:26:46Z</time></trkpt><trkpt lat="41.78744231671889" lon="12.486540493820382"><ele>48.0</ele><time>2026-04-19T13:26:47Z</time></trkpt><trkpt lat="41.787456425319704" lon="12.486371353782038"><ele>48.0</ele><time>2026-04-19T13:26:48Z</time></trkpt><trkpt lat="41.78746995586874" lon="12.48620350733116"><ele>48.0</ele><time>2026-04-19T13:26:49Z</time></trkpt><trkpt lat="41.787483276851496" lon="12.486038138849286"><ele>48.0</ele><time>2026-04-19T13:26:50Z</time></trkpt><trkpt lat="41.78749758661526" lon="12.485874885521275"><ele>48.0</ele><time>2026-04-19T13:26:51Z</time></trkpt><trkpt lat="41.7875121961855" lon="12.485713815006257"><ele>48.0</ele><time>2026-04-19T13:26:52Z</time></trkpt><trkpt lat="41.78752712867071" lon="12.4855564848815"><ele>48.0</ele><time>2026-04-19T13:26:53Z</time></trkpt><trkpt lat="41.787546400033946" lon="12.485403045888312"><ele>48.0</ele><time>2026-04-19T13:26:54Z</time></trkpt><trkpt lat="41.78757116556716" lon="12.485253508356731"><ele>48.0</ele><time>2026-04-19T13:26:55Z</time></trkpt><trkpt lat="41.787604272985135" lon="12.485110686653305"><ele>47.8</ele><time>2026-04-19T13:26:56Z</time></trkpt><trkpt lat="41.7876501968308" lon="12.484984034869099"><ele>47.599999999999994</ele><time>2026-04-19T13:26:57Z</time></trkpt><trkpt lat="41.78770311649158" lon="12.484849993421225"><ele>47.400000000000006</ele><time>2026-04-19T13:26:58Z</time></trkpt><trkpt lat="41.78774517695852" lon="12.4847174005276"><ele>47.2</ele><time>2026-04-19T13:26:59Z</time></trkpt><trkpt lat="41.78778287387272" lon="12.484584420032922"><ele>47.0</ele><time>2026-04-19T13:27:00Z</time></trkpt><trkpt lat="41.78781275326832" lon="12.484454663163701"><ele>46.6</ele><time>2026-04-19T13:27:01Z</time></trkpt><trkpt lat="41.78783290045471" lon="12.484329072052955"><ele>46.2</ele><time>2026-04-19T13:27:02Z</time></trkpt><trkpt lat="41.78784465047203" lon="12.48420511151718"><ele>45.8</ele><time>2026-04-19T13:27:03Z</time></trkpt><trkpt lat="41.78784902745553" lon="12.484080403323055"><ele>45.4</ele><time>2026-04-19T13:27:04Z</time></trkpt><trkpt lat="41.787845583518276" lon="12.483951510767676"><ele>45.0</ele><time>2026-04-19T13:27:05Z</time></trkpt><trkpt lat="41.78784232344362" lon="12.483823785593898"><ele>45.166666666666664</ele><time>2026-04-19T13:27:06Z</time></trkpt><trkpt lat="41.78783814500534" lon="12.483696281509598"><ele>45.333333333333336</ele><time>2026-04-19T13:27:07Z</time></trkpt><trkpt lat="41.78783059809634" lon="12.483572433000559"><ele>45.5</ele><time>2026-04-19T13:27:08Z</time></trkpt><trkpt lat="41.7878266539234" lon="12.483455430716269"><ele>45.66666666666667</ele><time>2026-04-19T13:27:09Z</time></trkpt><trkpt lat="41.787813606675876" lon="12.483342581210318"><ele>45.833333333333336</ele><time>2026-04-19T13:27:10Z</time></trkpt><trkpt lat="41.78783403990999" lon="12.483231446901282"><ele>46.0</ele><time>2026-04-19T13:27:11Z</time></trkpt><trkpt lat="41.78785325687715" lon="12.483119709555925"><ele>46.0</ele><time>2026-04-19T13:27:12Z</time></trkpt><trkpt lat="41.78787052586942" lon="12.48301628062925"><ele>46.0</ele><time>2026-04-19T13:27:13Z</time></trkpt><trkpt lat="41.78788666191385" lon="12.48291963726652"><ele>46.0</ele><time>2026-04-19T13:27:14Z</time></trkpt><trkpt lat="41.787901461151996" lon="12.482833120508927"><ele>46.0</ele><time>2026-04-19T13:27:15Z</time></trkpt><trkpt lat="41.78792777032871" lon="12.482687330684328"><ele>46.0</ele><time>2026-04-19T13:27:17Z</time></trkpt><trkpt lat="41.78797328187601" lon="12.482547697140614"><ele>46.0</ele><time>2026-04-19T13:27:19Z</time></trkpt><trkpt lat="41.788024565890154" lon="12.482484620590023"><ele>46.0</ele><time>2026-04-19T13:27:20Z</time></trkpt><trkpt lat="41.78807701858412" lon="12.482412369655007"><ele>46.0</ele><time>2026-04-19T13:27:21Z</time></trkpt><trkpt lat="41.78812162273672" lon="12.482330539825039"><ele>46.0</ele><time>2026-04-19T13:27:22Z</time></trkpt><trkpt lat="41.788151912262684" lon="12.482235869677263"><ele>46.0</ele><time>2026-04-19T13:27:23Z</time></trkpt><trkpt lat="41.78817153555162" lon="12.48213922331997"><ele>46.0</ele><time>2026-04-19T13:27:24Z</time></trkpt><trkpt lat="41.788180242468904" lon="12.482039959504819"><ele>46.0</ele><time>2026-04-19T13:27:25Z</time></trkpt><trkpt lat="41.78817765696985" lon="12.48194057916079"><ele>46.0</ele><time>2026-04-19T13:27:26Z</time></trkpt><trkpt lat="41.788160809160466" lon="12.481843987155951"><ele>46.0</ele><time>2026-04-19T13:27:27Z</time></trkpt><trkpt lat="41.78813471852459" lon="12.481748598082044"><ele>46.0</ele><time>2026-04-19T13:27:27.999Z</time></trkpt><trkpt lat="41.788100777640885" lon="12.481659669141953"><ele>46.0</ele><time>2026-04-19T13:27:28.999Z</time></trkpt><trkpt lat="41.7880552830227" lon="12.481575971197671"><ele>46.0</ele><time>2026-04-19T13:27:29.999Z</time></trkpt><trkpt lat="41.78800196231976" lon="12.481501664928814"><ele>46.0</ele><time>2026-04-19T13:27:30.999Z</time></trkpt><trkpt lat="41.78793868630325" lon="12.481442877414924"><ele>46.0</ele><time>2026-04-19T13:27:31.999Z</time></trkpt><trkpt lat="41.787868548918375" lon="12.481402923312949"><ele>46.0</ele><time>2026-04-19T13:27:32.999Z</time></trkpt><trkpt lat="41.787795685030645" lon="12.481374197647563"><ele>46.0</ele><time>2026-04-19T13:27:33.999Z</time></trkpt><trkpt lat="41.78771845257691" lon="12.481362325251236"><ele>46.0</ele><time>2026-04-19T13:27:34.999Z</time></trkpt><trkpt lat="41.787642333159326" lon="12.48136392435048"><ele>46.0</ele><time>2026-04-19T13:27:35.999Z</time></trkpt><trkpt lat="41.78756623675282" lon="12.481386643177334"><ele>46.0</ele><time>2026-04-19T13:27:36.999Z</time></trkpt><trkpt lat="41.78749186364859" lon="12.481422057222728"><ele>46.0</ele><time>2026-04-19T13:27:37.999Z</time></trkpt><trkpt lat="41.787419976131986" lon="12.481477850070998"><ele>46.0</ele><time>2026-04-19T13:27:38.999Z</time></trkpt><trkpt lat="41.78735620870373" lon="12.481548787138012"><ele>46.0</ele><time>2026-04-19T13:27:39.999Z</time></trkpt><trkpt lat="41.78730444636997" lon="12.48162942844046"><ele>46.0</ele><time>2026-04-19T13:27:40.999Z</time></trkpt><trkpt lat="41.78726246403981" lon="12.481713285822229"><ele>46.0</ele><time>2026-04-19T13:27:41.999Z</time></trkpt><trkpt lat="41.787227513342614" lon="12.481798386648903"><ele>46.0</ele><time>2026-04-19T13:27:42.999Z</time></trkpt><trkpt lat="41.787191509048164" lon="12.481877129463399"><ele>46.0</ele><time>2026-04-19T13:27:43.999Z</time></trkpt><trkpt lat="41.78713920143553" lon="12.48193499308583"><ele>46.0</ele><time>2026-04-19T13:27:44.999Z</time></trkpt><trkpt lat="41.78706840714516" lon="12.48196194161779"><ele>46.0</ele><time>2026-04-19T13:27:45.999Z</time></trkpt><trkpt lat="41.78700190539578" lon="12.48196831654829"><ele>46.0</ele><time>2026-04-19T13:27:46.999Z</time></trkpt><trkpt lat="41.786933834157836" lon="12.481964705984652"><ele>46.0</ele><time>2026-04-19T13:27:47.999Z</time></trkpt><trkpt lat="41.78685907933705" lon="12.481964567584209"><ele>46.0</ele><time>2026-04-19T13:27:48.999Z</time></trkpt><trkpt lat="41.78677382995073" lon="12.481962505772653"><ele>46.0</ele><time>2026-04-19T13:27:49.999Z</time></trkpt><trkpt lat="41.78667909401644" lon="12.481958353951235"><ele>46.0</ele><time>2026-04-19T13:27:51Z</time></trkpt><trkpt lat="41.78657543716133" lon="12.481949920215403"><ele>46.0</ele><time>2026-04-19T13:27:52Z</time></trkpt><trkpt lat="41.78646595343027" lon="12.481941153957548"><ele>46.0</ele><time>2026-04-19T13:27:53Z</time></trkpt><trkpt lat="41.78635099688521" lon="12.481928730690681"><ele>46.0</ele><time>2026-04-19T13:27:54Z</time></trkpt><trkpt lat="41.786232871001715" lon="12.481912563455468"><ele>46.0</ele><time>2026-04-19T13:27:55Z</time></trkpt><trkpt lat="41.78611171588989" lon="12.481891373210766"><ele>45.75</ele><time>2026-04-19T13:27:56Z</time></trkpt><trkpt lat="41.7859866632269" lon="12.481861926405676"><ele>45.5</ele><time>2026-04-19T13:27:57Z</time></trkpt><trkpt lat="41.785858378108216" lon="12.48182484866495"><ele>45.25</ele><time>2026-04-19T13:27:58Z</time></trkpt><trkpt lat="41.78572677082697" lon="12.481780902785932"><ele>45.0</ele><time>2026-04-19T13:27:59Z</time></trkpt><trkpt lat="41.785590958738005" lon="12.481734372401004"><ele>45.0</ele><time>2026-04-19T13:28:00Z</time></trkpt><trkpt lat="41.785455688557846" lon="12.481683198123886"><ele>45.0</ele><time>2026-04-19T13:28:01Z</time></trkpt><trkpt lat="41.785318115038656" lon="12.481629227316054"><ele>45.0</ele><time>2026-04-19T13:28:02Z</time></trkpt><trkpt lat="41.78517846730061" lon="12.481570825052733"><ele>45.0</ele><time>2026-04-19T13:28:03Z</time></trkpt><trkpt lat="41.78503562329741" lon="12.481515097248943"><ele>46.0</ele><time>2026-04-19T13:28:04Z</time></trkpt><trkpt lat="41.78489124540084" lon="12.481464145822558"><ele>47.0</ele><time>2026-04-19T13:28:05Z</time></trkpt><trkpt lat="41.784746057936516" lon="12.48142085642526"><ele>48.0</ele><time>2026-04-19T13:28:06Z</time></trkpt><trkpt lat="41.784601404813316" lon="12.481385364151649"><ele>49.0</ele><time>2026-04-19T13:28:07Z</time></trkpt><trkpt lat="41.784457688499714" lon="12.481356861357778"><ele>50.5</ele><time>2026-04-19T13:28:08Z</time></trkpt><trkpt lat="41.78431448396374" lon="12.481342321638001"><ele>52.0</ele><time>2026-04-19T13:28:09Z</time></trkpt><trkpt lat="41.784171603743005" lon="12.481337122256358"><ele>53.5</ele><time>2026-04-19T13:28:10Z</time></trkpt><trkpt lat="41.78402845015671" lon="12.481337916452864"><ele>55.0</ele><time>2026-04-19T13:28:11Z</time></trkpt><trkpt lat="41.783882878128345" lon="12.481336623010256"><ele>55.0</ele><time>2026-04-19T13:28:12Z</time></trkpt><trkpt lat="41.78373582329657" lon="12.481339745677694"><ele>55.0</ele><time>2026-04-19T13:28:13Z</time></trkpt><trkpt lat="41.78358846899973" lon="12.481343292565436"><ele>55.0</ele><time>2026-04-19T13:28:14Z</time></trkpt><trkpt lat="41.78344093919589" lon="12.481344620882767"><ele>55.0</ele><time>2026-04-19T13:28:15Z</time></trkpt><trkpt lat="41.78329215981472" lon="12.481345221370937"><ele>54.75</ele><time>2026-04-19T13:28:16Z</time></trkpt><trkpt lat="41.78314350861668" lon="12.4813424076721"><ele>54.5</ele><time>2026-04-19T13:28:17Z</time></trkpt><trkpt lat="41.78299329447438" lon="12.48133416513513"><ele>54.25</ele><time>2026-04-19T13:28:18Z</time></trkpt><trkpt lat="41.78284385044145" lon="12.48132128065598"><ele>54.0</ele><time>2026-04-19T13:28:19Z</time></trkpt><trkpt lat="41.78269455122553" lon="12.481305920513078"><ele>53.75</ele><time>2026-04-19T13:28:20Z</time></trkpt><trkpt lat="41.78254715841884" lon="12.48128430817795"><ele>53.5</ele><time>2026-04-19T13:28:21Z</time></trkpt><trkpt lat="41.78239955646833" lon="12.481259165765971"><ele>53.25</ele><time>2026-04-19T13:28:22Z</time></trkpt><trkpt lat="41.78225117320988" lon="12.481231204791458"><ele>53.0</ele><time>2026-04-19T13:28:23Z</time></trkpt><trkpt lat="41.78210161177434" lon="12.481198599144367"><ele>52.333333333333336</ele><time>2026-04-19T13:28:24Z</time></trkpt><trkpt lat="41.78195131802396" lon="12.481162607215111"><ele>51.66666666666667</ele><time>2026-04-19T13:28:25Z</time></trkpt><trkpt lat="41.781799827279904" lon="12.48112551696"><ele>51.0</ele><time>2026-04-19T13:28:26Z</time></trkpt><trkpt lat="41.78164697573788" lon="12.481085607944614"><ele>52.66666666666667</ele><time>2026-04-19T13:28:27Z</time></trkpt><trkpt lat="41.78149342680268" lon="12.48104487691701"><ele>54.333333333333336</ele><time>2026-04-19T13:28:28Z</time></trkpt><trkpt lat="41.781339078123736" lon="12.48100444893884"><ele>56.0</ele><time>2026-04-19T13:28:29Z</time></trkpt><trkpt lat="41.78118435993664" lon="12.480963847976247"><ele>56.0</ele><time>2026-04-19T13:28:30Z</time></trkpt><trkpt lat="41.78102947435665" lon="12.480924040829269"><ele>56.0</ele><time>2026-04-19T13:28:31Z</time></trkpt><trkpt lat="41.78087565259424" lon="12.480885648548957"><ele>56.0</ele><time>2026-04-19T13:28:32Z</time></trkpt><trkpt lat="41.78072195990095" lon="12.480847989353723"><ele>57.333333333333336</ele><time>2026-04-19T13:28:33Z</time></trkpt><trkpt lat="41.780568408765696" lon="12.480811121874714"><ele>58.66666666666667</ele><time>2026-04-19T13:28:34Z</time></trkpt><trkpt lat="41.78041506695435" lon="12.480774894816914"><ele>60.0</ele><time>2026-04-19T13:28:35Z</time></trkpt><trkpt lat="41.78026154522057" lon="12.480741565861022"><ele>60.33333333333333</ele><time>2026-04-19T13:28:36Z</time></trkpt><trkpt lat="41.78010830552458" lon="12.480713804390335"><ele>60.666666666666664</ele><time>2026-04-19T13:28:37Z</time></trkpt><trkpt lat="41.77995512714985" lon="12.480690642036492"><ele>61.0</ele><time>2026-04-19T13:28:38Z</time></trkpt><trkpt lat="41.77980189918985" lon="12.480673150108695"><ele>61.0</ele><time>2026-04-19T13:28:39Z</time></trkpt><trkpt lat="41.77964949313057" lon="12.480659122907847"><ele>61.0</ele><time>2026-04-19T13:28:40Z</time></trkpt><trkpt lat="41.77949640086518" lon="12.480650035802404"><ele>61.0</ele><time>2026-04-19T13:28:41Z</time></trkpt><trkpt lat="41.7793427695717" lon="12.480644781871135"><ele>61.33333333333333</ele><time>2026-04-19T13:28:42Z</time></trkpt><trkpt lat="41.77918928318065" lon="12.48064283151214"><ele>61.66666666666667</ele><time>2026-04-19T13:28:43Z</time></trkpt><trkpt lat="41.77903468420022" lon="12.480644168212073"><ele>62.0</ele><time>2026-04-19T13:28:44Z</time></trkpt><trkpt lat="41.77888038842302" lon="12.480648783505032"><ele>62.0</ele><time>2026-04-19T13:28:45Z</time></trkpt><trkpt lat="41.77872544982399" lon="12.480655836720175"><ele>62.0</ele><time>2026-04-19T13:28:46Z</time></trkpt><trkpt lat="41.77857054049095" lon="12.480665008655214"><ele>62.0</ele><time>2026-04-19T13:28:47Z</time></trkpt><trkpt lat="41.77841693562802" lon="12.48067470804177"><ele>61.66666666666667</ele><time>2026-04-19T13:28:48Z</time></trkpt><trkpt lat="41.77826490691589" lon="12.480683406630842"><ele>61.33333333333333</ele><time>2026-04-19T13:28:49Z</time></trkpt><trkpt lat="41.778112491159135" lon="12.48069170949397"><ele>61.0</ele><time>2026-04-19T13:28:50Z</time></trkpt><trkpt lat="41.77795905357854" lon="12.48070015100961"><ele>61.0</ele><time>2026-04-19T13:28:51Z</time></trkpt><trkpt lat="41.777806400738875" lon="12.480708796653557"><ele>61.0</ele><time>2026-04-19T13:28:52Z</time></trkpt><trkpt lat="41.77765873237952" lon="12.480717417246987"><ele>61.0</ele><time>2026-04-19T13:28:53Z</time></trkpt><trkpt lat="41.77751533201149" lon="12.480724734840026"><ele>61.0</ele><time>2026-04-19T13:28:54Z</time></trkpt><trkpt lat="41.77737586581815" lon="12.480731026606724"><ele>62.25</ele><time>2026-04-19T13:28:55Z</time></trkpt><trkpt lat="41.77724048880322" lon="12.480732302239401"><ele>63.5</ele><time>2026-04-19T13:28:56Z</time></trkpt><trkpt lat="41.777110722262925" lon="12.48072883912131"><ele>64.75</ele><time>2026-04-19T13:28:57Z</time></trkpt><trkpt lat="41.77698433796389" lon="12.480722558987228"><ele>66.0</ele><time>2026-04-19T13:28:58Z</time></trkpt><trkpt lat="41.77686720481315" lon="12.480708782028897"><ele>66.39999999999999</ele><time>2026-04-19T13:28:59Z</time></trkpt><trkpt lat="41.776758914601814" lon="12.480694482590952"><ele>66.8</ele><time>2026-04-19T13:29:00Z</time></trkpt><trkpt lat="41.77665622229767" lon="12.4806779345688"><ele>67.19999999999999</ele><time>2026-04-19T13:29:01Z</time></trkpt><trkpt lat="41.77656244470624" lon="12.480664528867862"><ele>67.6</ele><time>2026-04-19T13:29:02Z</time></trkpt><trkpt lat="41.776481844128114" lon="12.480651420325884"><ele>68.0</ele><time>2026-04-19T13:29:03Z</time></trkpt><trkpt lat="41.776417700133166" lon="12.480634725257612"><ele>68.0</ele><time>2026-04-19T13:29:04Z</time></trkpt><trkpt lat="41.77633353816352" lon="12.48057628569722"><ele>68.0</ele><time>2026-04-19T13:29:06Z</time></trkpt><trkpt lat="41.77628877722165" lon="12.480492121822941"><ele>68.0</ele><time>2026-04-19T13:29:08Z</time></trkpt><trkpt lat="41.77624206378244" lon="12.480349094592585"><ele>68.0</ele><time>2026-04-19T13:29:10Z</time></trkpt><trkpt lat="41.7762071309394" lon="12.480273740379443"><ele>68.0</ele><time>2026-04-19T13:29:11Z</time></trkpt><trkpt lat="41.77615415482355" lon="12.480204193358352"><ele>68.0</ele><time>2026-04-19T13:29:12Z</time></trkpt><trkpt lat="41.776093991500666" lon="12.480139867692488"><ele>68.5</ele><time>2026-04-19T13:29:13Z</time></trkpt><trkpt lat="41.776014881374884" lon="12.480110244652263"><ele>69.0</ele><time>2026-04-19T13:29:14Z</time></trkpt><trkpt lat="41.77594053702774" lon="12.480072399189876"><ele>69.5</ele><time>2026-04-19T13:29:15Z</time></trkpt><trkpt lat="41.775862789472185" lon="12.480046642947674"><ele>70.0</ele><time>2026-04-19T13:29:16Z</time></trkpt><trkpt lat="41.775781658675264" lon="12.480034431276648"><ele>70.5</ele><time>2026-04-19T13:29:17Z</time></trkpt><trkpt lat="41.77569990323052" lon="12.480037829116622"><ele>71.0</ele><time>2026-04-19T13:29:18Z</time></trkpt><trkpt lat="41.77561893266245" lon="12.480058704905092"><ele>71.0</ele><time>2026-04-19T13:29:19Z</time></trkpt><trkpt lat="41.77554340379439" lon="12.480093878916067"><ele>71.0</ele><time>2026-04-19T13:29:20Z</time></trkpt><trkpt lat="41.77548080195876" lon="12.480142446310605"><ele>71.0</ele><time>2026-04-19T13:29:21Z</time></trkpt><trkpt lat="41.775426149633105" lon="12.480202338925222"><ele>71.0</ele><time>2026-04-19T13:29:22Z</time></trkpt><trkpt lat="41.77538020795625" lon="12.480263107307206"><ele>71.0</ele><time>2026-04-19T13:29:23Z</time></trkpt><trkpt lat="41.77528669754814" lon="12.480356227546418"><ele>71.0</ele><time>2026-04-19T13:29:25Z</time></trkpt><trkpt lat="41.77518405422324" lon="12.48030062654377"><ele>70.83333333333334</ele><time>2026-04-19T13:29:27Z</time></trkpt><trkpt lat="41.77508441514415" lon="12.480283290896592"><ele>70.66666666666667</ele><time>2026-04-19T13:29:29Z</time></trkpt><trkpt lat="41.775000394278095" lon="12.480268587247739"><ele>70.5</ele><time>2026-04-19T13:29:31Z</time></trkpt><trkpt lat="41.77492756240275" lon="12.480256068025357"><ele>70.33333333333333</ele><time>2026-04-19T13:29:33Z</time></trkpt><trkpt lat="41.7748615446416" lon="12.480244750690392"><ele>70.16666666666666</ele><time>2026-04-19T13:29:35.999Z</time></trkpt><trkpt lat="41.774797003765144" lon="12.480233932132178"><ele>70.0</ele><time>2026-04-19T13:30:02Z</time></trkpt><trkpt lat="41.77473361459068" lon="12.480223321072481"><ele>70.0</ele><time>2026-04-19T13:30:05Z</time></trkpt><trkpt lat="41.77464491517461" lon="12.480207295367409"><ele>70.0</ele><time>2026-04-19T13:30:07Z</time></trkpt><trkpt lat="41.774530904750044" lon="12.480185491031003"><ele>70.0</ele><time>2026-04-19T13:30:09Z</time></trkpt><trkpt lat="41.774466571435745" lon="12.480173096980328"><ele>70.0</ele><time>2026-04-19T13:30:10Z</time></trkpt><trkpt lat="41.77439776284147" lon="12.480159840734267"><ele>70.0</ele><time>2026-04-19T13:30:11Z</time></trkpt><trkpt lat="41.77432594990111" lon="12.480146005695179"><ele>70.0</ele><time>2026-04-19T13:30:12Z</time></trkpt><trkpt lat="41.774247385972004" lon="12.480130870045857"><ele>70.0</ele><time>2026-04-19T13:30:13Z</time></trkpt><trkpt lat="41.77416505005562" lon="12.48011510085893"><ele>70.0</ele><time>2026-04-19T13:30:14Z</time></trkpt><trkpt lat="41.774077773375716" lon="12.480098798201098"><ele>70.0</ele><time>2026-04-19T13:30:15Z</time></trkpt><trkpt lat="41.773991967843024" lon="12.480082770328375"><ele>70.0</ele><time>2026-04-19T13:30:16Z</time></trkpt><trkpt lat="41.77391176465946" lon="12.480067788938339"><ele>70.0</ele><time>2026-04-19T13:30:17Z</time></trkpt><trkpt lat="41.773836636966834" lon="12.480053755596073"><ele>70.0</ele><time>2026-04-19T13:30:18Z</time></trkpt><trkpt lat="41.77376305819328" lon="12.480039937980726"><ele>70.0</ele><time>2026-04-19T13:30:19Z</time></trkpt><trkpt lat="41.77369357497522" lon="12.480026823477864"><ele>70.0</ele><time>2026-04-19T13:30:20Z</time></trkpt><trkpt lat="41.7736304130466" lon="12.480014902105111"><ele>70.0</ele><time>2026-04-19T13:30:21Z</time></trkpt><trkpt lat="41.77351806584796" lon="12.479993697320657"><ele>70.0</ele><time>2026-04-19T13:30:23Z</time></trkpt><trkpt lat="41.773408521600224" lon="12.47997302155773"><ele>70.0</ele><time>2026-04-19T13:30:25Z</time></trkpt><trkpt lat="41.7732960703907" lon="12.479952286629468"><ele>70.5</ele><time>2026-04-19T13:30:27Z</time></trkpt><trkpt lat="41.773197738344855" lon="12.479933946521601"><ele>71.0</ele><time>2026-04-19T13:30:29Z</time></trkpt><trkpt lat="41.773116072127756" lon="12.479918488525733"><ele>71.5</ele><time>2026-04-19T13:30:31Z</time></trkpt><trkpt lat="41.7730353019473" lon="12.479903200134718"><ele>72.0</ele><time>2026-04-19T13:30:33Z</time></trkpt><trkpt lat="41.7729262610038" lon="12.479882560582437"><ele>72.5</ele><time>2026-04-19T13:30:35Z</time></trkpt><trkpt lat="41.772862269679486" lon="12.479870740547925"><ele>73.0</ele><time>2026-04-19T13:30:36Z</time></trkpt><trkpt lat="41.77279228713039" lon="12.479858002823873"><ele>73.0</ele><time>2026-04-19T13:30:37Z</time></trkpt><trkpt lat="41.77272621497345" lon="12.479845525314284"><ele>73.0</ele><time>2026-04-19T13:30:38Z</time></trkpt><trkpt lat="41.77260443518211" lon="12.479821922031412"><ele>73.0</ele><time>2026-04-19T13:30:40Z</time></trkpt><trkpt lat="41.772497086301364" lon="12.479801710249207"><ele>73.0</ele><time>2026-04-19T13:30:42Z</time></trkpt><trkpt lat="41.772392553703696" lon="12.47978255871221"><ele>73.0</ele><time>2026-04-19T13:30:44Z</time></trkpt><trkpt lat="41.77229574571361" lon="12.479764861411931"><ele>73.16666666666666</ele><time>2026-04-19T13:30:46Z</time></trkpt><trkpt lat="41.77220105479137" lon="12.479747551160646"><ele>73.33333333333333</ele><time>2026-04-19T13:30:48Z</time></trkpt><trkpt lat="41.77208729689808" lon="12.479727223277393"><ele>73.5</ele><time>2026-04-19T13:30:50Z</time></trkpt><trkpt lat="41.77202073216483" lon="12.479715269636982"><ele>73.66666666666667</ele><time>2026-04-19T13:30:51Z</time></trkpt><trkpt lat="41.77195015020616" lon="12.479702594587339"><ele>73.83333333333334</ele><time>2026-04-19T13:30:52Z</time></trkpt><trkpt lat="41.771880321486165" lon="12.479690054804164"><ele>74.0</ele><time>2026-04-19T13:30:53Z</time></trkpt><trkpt lat="41.77181157962111" lon="12.479677713481813"><ele>73.66666666666667</ele><time>2026-04-19T13:30:54Z</time></trkpt><trkpt lat="41.77174234430652" lon="12.479665373753779"><ele>73.33333333333334</ele><time>2026-04-19T13:30:55Z</time></trkpt><trkpt lat="41.77166893465829" lon="12.479652290040605"><ele>73.0</ele><time>2026-04-19T13:30:56Z</time></trkpt><trkpt lat="41.771593665204925" lon="12.479638874856297"><ele>72.66666666666667</ele><time>2026-04-19T13:30:57Z</time></trkpt><trkpt lat="41.77152021162583" lon="12.479625783332727"><ele>72.33333333333333</ele><time>2026-04-19T13:30:58Z</time></trkpt><trkpt lat="41.771452933363804" lon="12.479613591784268"><ele>72.0</ele><time>2026-04-19T13:30:59Z</time></trkpt><trkpt lat="41.771339831173" lon="12.479591913863505"><ele>71.66666666666667</ele><time>2026-04-19T13:31:01Z</time></trkpt><trkpt lat="41.77125676222326" lon="12.479576247040786"><ele>71.33333333333333</ele><time>2026-04-19T13:31:03Z</time></trkpt><trkpt lat="41.77119038102563" lon="12.479564507038816"><ele>71.0</ele><time>2026-04-19T13:31:22Z</time></trkpt><trkpt lat="41.77110261631691" lon="12.47954965469977"><ele>70.66666666666666</ele><time>2026-04-19T13:31:24Z</time></trkpt><trkpt lat="41.770982823166705" lon="12.47953027848539"><ele>70.33333333333333</ele><time>2026-04-19T13:31:26Z</time></trkpt><trkpt lat="41.77091119015179" lon="12.479516365313106"><ele>70.0</ele><time>2026-04-19T13:31:27Z</time></trkpt><trkpt lat="41.77083324815389" lon="12.479500752615854"><ele>69.6</ele><time>2026-04-19T13:31:28Z</time></trkpt><trkpt lat="41.77075026171248" lon="12.479483809601234"><ele>69.2</ele><time>2026-04-19T13:31:29Z</time></trkpt><trkpt lat="41.770666489487205" lon="12.479458420453131"><ele>68.8</ele><time>2026-04-19T13:31:30Z</time></trkpt><trkpt lat="41.77057713817491" lon="12.47942964168739"><ele>68.4</ele><time>2026-04-19T13:31:31Z</time></trkpt><trkpt lat="41.77048558737618" lon="12.479396897390663"><ele>68.0</ele><time>2026-04-19T13:31:32Z</time></trkpt><trkpt lat="41.77039120846881" lon="12.479360299407718"><ele>68.0</ele><time>2026-04-19T13:31:33Z</time></trkpt><trkpt lat="41.770299419562676" lon="12.479318324083435"><ele>68.0</ele><time>2026-04-19T13:31:34Z</time></trkpt><trkpt lat="41.77020636538052" lon="12.479272614925408"><ele>68.0</ele><time>2026-04-19T13:31:35Z</time></trkpt><trkpt lat="41.770094321576984" lon="12.479289640835553"><ele>68.0</ele><time>2026-04-19T13:31:36Z</time></trkpt><trkpt lat="41.77000169512931" lon="12.479242042525524"><ele>68.0</ele><time>2026-04-19T13:31:37Z</time></trkpt><trkpt lat="41.76990957391451" lon="12.479194601824444"><ele>67.2</ele><time>2026-04-19T13:31:38Z</time></trkpt><trkpt lat="41.7698188937834" lon="12.47914815590077"><ele>66.4</ele><time>2026-04-19T13:31:39Z</time></trkpt><trkpt lat="41.76974526445608" lon="12.479037707698517"><ele>65.60000000000001</ele><time>2026-04-19T13:31:40Z</time></trkpt><trkpt lat="41.76965624504864" lon="12.4789902059205"><ele>64.8</ele><time>2026-04-19T13:31:41Z</time></trkpt><trkpt lat="41.769565801386904" lon="12.478942544263552"><ele>64.0</ele><time>2026-04-19T13:31:42Z</time></trkpt><trkpt lat="41.769473557471834" lon="12.478893934126726"><ele>64.0</ele><time>2026-04-19T13:31:43Z</time></trkpt><trkpt lat="41.7693789857082" lon="12.478844954736424"><ele>64.0</ele><time>2026-04-19T13:31:44Z</time></trkpt><trkpt lat="41.769282940027175" lon="12.478794825168329"><ele>64.0</ele><time>2026-04-19T13:31:45Z</time></trkpt><trkpt lat="41.76918447973884" lon="12.478746582358987"><ele>64.0</ele><time>2026-04-19T13:31:46Z</time></trkpt><trkpt lat="41.769088760176814" lon="12.478697695106671"><ele>64.0</ele><time>2026-04-19T13:31:47Z</time></trkpt><trkpt lat="41.76899265355066" lon="12.478648877101838"><ele>63.800000000000004</ele><time>2026-04-19T13:31:48Z</time></trkpt><trkpt lat="41.76889582094033" lon="12.478599768637032"><ele>63.60000000000001</ele><time>2026-04-19T13:31:49Z</time></trkpt><trkpt lat="41.768800482579856" lon="12.47855229216539"><ele>63.4</ele><time>2026-04-19T13:31:50Z</time></trkpt><trkpt lat="41.7687069192842" lon="12.478505699639838"><ele>63.2</ele><time>2026-04-19T13:31:51Z</time></trkpt><trkpt lat="41.76861521196607" lon="12.478460031396073"><ele>63.0</ele><time>2026-04-19T13:31:52Z</time></trkpt><trkpt lat="41.76852577913956" lon="12.478415281988559"><ele>63.8</ele><time>2026-04-19T13:31:53Z</time></trkpt><trkpt lat="41.768438419893485" lon="12.478370267202749"><ele>64.6</ele><time>2026-04-19T13:31:54Z</time></trkpt><trkpt lat="41.76835128247565" lon="12.478325151552832"><ele>65.4</ele><time>2026-04-19T13:31:55Z</time></trkpt><trkpt lat="41.76826467469889" lon="12.478280310195457"><ele>66.2</ele><time>2026-04-19T13:31:56Z</time></trkpt><trkpt lat="41.76817801528078" lon="12.478235440249259"><ele>67.0</ele><time>2026-04-19T13:31:57Z</time></trkpt><trkpt lat="41.76809133114157" lon="12.478189896220533"><ele>67.0</ele><time>2026-04-19T13:31:58Z</time></trkpt><trkpt lat="41.76800263645816" lon="12.478144153976597"><ele>67.0</ele><time>2026-04-19T13:31:59Z</time></trkpt><trkpt lat="41.76791179713701" lon="12.478098128722907"><ele>67.0</ele><time>2026-04-19T13:32:00Z</time></trkpt><trkpt lat="41.76781961925093" lon="12.47805226500333"><ele>67.0</ele><time>2026-04-19T13:32:01Z</time></trkpt><trkpt lat="41.76772560362493" lon="12.478006170804582"><ele>67.0</ele><time>2026-04-19T13:32:02Z</time></trkpt><trkpt lat="41.76763181218471" lon="12.477960473440941"><ele>66.8</ele><time>2026-04-19T13:32:03Z</time></trkpt><trkpt lat="41.767541822267845" lon="12.477914095572066"><ele>66.6</ele><time>2026-04-19T13:32:04Z</time></trkpt><trkpt lat="41.767454250173294" lon="12.4778683634765"><ele>66.39999999999999</ele><time>2026-04-19T13:32:05Z</time></trkpt><trkpt lat="41.76736918755523" lon="12.477824608713906"><ele>66.2</ele><time>2026-04-19T13:32:06Z</time></trkpt><trkpt lat="41.76728747669705" lon="12.477782592874302"><ele>66.0</ele><time>2026-04-19T13:32:07Z</time></trkpt><trkpt lat="41.767208209844235" lon="12.477741833747947"><ele>66.0</ele><time>2026-04-19T13:32:08Z</time></trkpt><trkpt lat="41.76713237277135" lon="12.477702838350941"><ele>66.0</ele><time>2026-04-19T13:32:09Z</time></trkpt><trkpt lat="41.767052189265705" lon="12.477666829362066"><ele>66.0</ele><time>2026-04-19T13:32:10Z</time></trkpt><trkpt lat="41.766974119074185" lon="12.477632364290775"><ele>66.0</ele><time>2026-04-19T13:32:11Z</time></trkpt><trkpt lat="41.766893927633795" lon="12.47760373736179"><ele>66.0</ele><time>2026-04-19T13:32:12Z</time></trkpt><trkpt lat="41.76681447256974" lon="12.47757368903598"><ele>66.0</ele><time>2026-04-19T13:32:13Z</time></trkpt><trkpt lat="41.76672330278988" lon="12.477556244181185"><ele>66.39999999999999</ele><time>2026-04-19T13:32:14Z</time></trkpt><trkpt lat="41.766631300577394" lon="12.477541423847432"><ele>66.8</ele><time>2026-04-19T13:32:15Z</time></trkpt><trkpt lat="41.76653915675586" lon="12.477528184354934"><ele>67.19999999999999</ele><time>2026-04-19T13:32:16Z</time></trkpt><trkpt lat="41.76644646914376" lon="12.477515314415758"><ele>67.6</ele><time>2026-04-19T13:32:17Z</time></trkpt><trkpt lat="41.76635151773782" lon="12.477507281138038"><ele>68.0</ele><time>2026-04-19T13:32:18Z</time></trkpt><trkpt lat="41.766256241878004" lon="12.477498100032363"><ele>68.0</ele><time>2026-04-19T13:32:19Z</time></trkpt><trkpt lat="41.76616073415094" lon="12.477490601898278"><ele>68.0</ele><time>2026-04-19T13:32:20Z</time></trkpt><trkpt lat="41.76606383177446" lon="12.477482831826332"><ele>68.0</ele><time>2026-04-19T13:32:21Z</time></trkpt><trkpt lat="41.76596627582704" lon="12.477475098440276"><ele>68.0</ele><time>2026-04-19T13:32:22Z</time></trkpt><trkpt lat="41.765866259054796" lon="12.477471957127833"><ele>68.0</ele><time>2026-04-19T13:32:23Z</time></trkpt><trkpt lat="41.765767706436534" lon="12.477476007470244"><ele>68.0</ele><time>2026-04-19T13:32:24Z</time></trkpt><trkpt lat="41.76567174400701" lon="12.47748775516903"><ele>68.0</ele><time>2026-04-19T13:32:25Z</time></trkpt><trkpt lat="41.7655757777483" lon="12.477518223038443"><ele>68.0</ele><time>2026-04-19T13:32:26Z</time></trkpt><trkpt lat="41.76548698077214" lon="12.47754833228504"><ele>68.0</ele><time>2026-04-19T13:32:27Z</time></trkpt><trkpt lat="41.76539976099734" lon="12.477577384325626"><ele>68.0</ele><time>2026-04-19T13:32:28Z</time></trkpt><trkpt lat="41.765314540706086" lon="12.477605640392904"><ele>68.0</ele><time>2026-04-19T13:32:29Z</time></trkpt><trkpt lat="41.76523570013389" lon="12.477631379108935"><ele>68.0</ele><time>2026-04-19T13:32:30Z</time></trkpt><trkpt lat="41.765165941952574" lon="12.477654100332693"><ele>68.0</ele><time>2026-04-19T13:32:31Z</time></trkpt><trkpt lat="41.76505880984585" lon="12.477682905386272"><ele>68.0</ele><time>2026-04-19T13:32:33Z</time></trkpt><trkpt lat="41.76498496329747" lon="12.477690808256389"><ele>68.0</ele><time>2026-04-19T13:32:35Z</time></trkpt><trkpt lat="41.76491397041579" lon="12.477673239256946"><ele>68.0</ele><time>2026-04-19T13:32:37Z</time></trkpt><trkpt lat="41.76490834420043" lon="12.47758770769862"><ele>67.6</ele><time>2026-04-19T13:32:39Z</time></trkpt><trkpt lat="41.764860647705895" lon="12.477450292999746"><ele>67.19999999999999</ele><time>2026-04-19T13:32:41Z</time></trkpt><trkpt lat="41.76476029627892" lon="12.477436524192703"><ele>66.8</ele><time>2026-04-19T13:32:43Z</time></trkpt><trkpt lat="41.764691548419414" lon="12.477551755531268"><ele>66.39999999999999</ele><time>2026-04-19T13:32:45Z</time></trkpt><trkpt lat="41.764606883855215" lon="12.477644971267804"><ele>66.0</ele><time>2026-04-19T13:32:47Z</time></trkpt><trkpt lat="41.76453192565199" lon="12.477658908198674"><ele>66.0</ele><time>2026-04-19T13:32:48Z</time></trkpt><trkpt lat="41.76444498063673" lon="12.477758717019995"><ele>66.0</ele><time>2026-04-19T13:32:50Z</time></trkpt><trkpt lat="41.76435925894939" lon="12.477704646208581"><ele>66.0</ele><time>2026-04-19T13:32:51Z</time></trkpt><trkpt lat="41.764289248716906" lon="12.477698507082613"><ele>66.0</ele><time>2026-04-19T13:32:52Z</time></trkpt><trkpt lat="41.76421223294521" lon="12.477696240888356"><ele>66.0</ele><time>2026-04-19T13:32:53Z</time></trkpt><trkpt lat="41.76413070275752" lon="12.477693792423949"><ele>66.0</ele><time>2026-04-19T13:32:54Z</time></trkpt><trkpt lat="41.76404557228008" lon="12.477691235840057"><ele>66.16666666666667</ele><time>2026-04-19T13:32:55Z</time></trkpt><trkpt lat="41.76396234603078" lon="12.477689625702313"><ele>66.33333333333333</ele><time>2026-04-19T13:32:56Z</time></trkpt><trkpt lat="41.76388142279233" lon="12.477687804684978"><ele>66.5</ele><time>2026-04-19T13:32:57Z</time></trkpt><trkpt lat="41.76380416209321" lon="12.477685816595017"><ele>66.66666666666666</ele><time>2026-04-19T13:32:58Z</time></trkpt><trkpt lat="41.763735868398044" lon="12.477684015882897"><ele>66.83333333333333</ele><time>2026-04-19T13:32:59Z</time></trkpt><trkpt lat="41.76362995166595" lon="12.477681223157258"><ele>67.0</ele><time>2026-04-19T13:33:01Z</time></trkpt><trkpt lat="41.76355840069038" lon="12.477631612195145"><ele>67.0</ele><time>2026-04-19T13:33:03Z</time></trkpt><trkpt lat="41.76355062960738" lon="12.47751100122473"><ele>67.0</ele><time>2026-04-19T13:33:05Z</time></trkpt><trkpt lat="41.76358493723813" lon="12.477380213015872"><ele>67.0</ele><time>2026-04-19T13:33:07Z</time></trkpt><trkpt lat="41.76365644064067" lon="12.477299102855923"><ele>67.0</ele><time>2026-04-19T13:33:09Z</time></trkpt><trkpt lat="41.76371334091989" lon="12.477226178286093"><ele>67.0</ele><time>2026-04-19T13:33:11Z</time></trkpt><trkpt lat="41.76374740652224" lon="12.477103405622517"><ele>66.8</ele><time>2026-04-19T13:33:13Z</time></trkpt><trkpt lat="41.7637609010163" lon="12.47693954178592"><ele>66.6</ele><time>2026-04-19T13:33:15Z</time></trkpt><trkpt lat="41.76377581145541" lon="12.476854943376466"><ele>66.39999999999999</ele><time>2026-04-19T13:33:16Z</time></trkpt><trkpt lat="41.76381221919974" lon="12.47670345137942"><ele>66.2</ele><time>2026-04-19T13:33:18Z</time></trkpt><trkpt lat="41.763854898178664" lon="12.47658309190334"><ele>66.0</ele><time>2026-04-19T13:33:20Z</time></trkpt><trkpt lat="41.76389335724066" lon="12.476482634810624"><ele>66.0</ele><time>2026-04-19T13:33:22Z</time></trkpt><trkpt lat="41.763916742281054" lon="12.476391483754796"><ele>66.0</ele><time>2026-04-19T13:33:24Z</time></trkpt><trkpt lat="41.763937151336116" lon="12.476284483802072"><ele>66.0</ele><time>2026-04-19T13:33:39.001Z</time></trkpt></trkseg></trk></gpx>